sensor_id;sensor_type;location;lat;lon;timestamp;P1;durP1;ratioP1;P2;durP2;ratioP2
14992;SDS011;7592;51.088;13.732;2023-04-03T00:05:41;3.23;;;1.37;;
14992;SDS011;7592;51.088;13.732;2023-04-03T00:10:34;3.40;;;1.40;;
14992;SDS011;7592;51.088;13.732;2023-04-03T00:15:30;2.47;;;1.20;;
14992;SDS011;7592;51.088;13.732;2023-04-03T00:20:22;4.70;;;1.00;;
14992;SDS011;7592;51.088;13.732;2023-04-03T00:25:14;5.80;;;2.60;;
14992;SDS011;7592;51.088;13.732;2023-04-03T00:30:08;6.40;;;1.53;;
14992;SDS011;7592;51.088;13.732;2023-04-03T00:35:03;5.20;;;1.27;;
14992;SDS011;7592;51.088;13.732;2023-04-03T00:39:57;4.57;;;1.20;;
14992;SDS011;7592;51.088;13.732;2023-04-03T00:49:43;3.90;;;1.30;;
14992;SDS011;7592;51.088;13.732;2023-04-03T00:54:36;5.43;;;1.40;;
14992;SDS011;7592;51.088;13.732;2023-04-03T00:59:30;4.03;;;1.30;;
14992;SDS011;7592;51.088;13.732;2023-04-03T01:04:30;2.57;;;1.00;;
14992;SDS011;7592;51.088;13.732;2023-04-03T01:09:25;4.30;;;1.30;;
14992;SDS011;7592;51.088;13.732;2023-04-03T01:14:37;2.73;;;1.07;;
14992;SDS011;7592;51.088;13.732;2023-04-03T01:19:31;2.63;;;1.43;;
14992;SDS011;7592;51.088;13.732;2023-04-03T01:24:33;2.37;;;1.03;;
14992;SDS011;7592;51.088;13.732;2023-04-03T01:29:30;2.43;;;1.27;;
14992;SDS011;7592;51.088;13.732;2023-04-03T01:34:22;2.83;;;1.20;;
14992;SDS011;7592;51.088;13.732;2023-04-03T01:39:16;4.97;;;1.40;;
14992;SDS011;7592;51.088;13.732;2023-04-03T01:44:09;4.53;;;1.30;;
14992;SDS011;7592;51.088;13.732;2023-04-03T01:49:01;3.63;;;1.57;;
14992;SDS011;7592;51.088;13.732;2023-04-03T01:53:54;4.00;;;1.77;;
14992;SDS011;7592;51.088;13.732;2023-04-03T01:58:46;5.13;;;1.37;;
14992;SDS011;7592;51.088;13.732;2023-04-03T02:03:38;10.80;;;1.70;;
14992;SDS011;7592;51.088;13.732;2023-04-03T02:08:30;2.37;;;1.20;;
14992;SDS011;7592;51.088;13.732;2023-04-03T02:13:23;3.30;;;1.30;;
14992;SDS011;7592;51.088;13.732;2023-04-03T02:18:15;4.47;;;1.33;;
14992;SDS011;7592;51.088;13.732;2023-04-03T02:23:08;3.80;;;1.43;;
14992;SDS011;7592;51.088;13.732;2023-04-03T02:28:00;3.70;;;1.60;;
14992;SDS011;7592;51.088;13.732;2023-04-03T02:32:52;3.93;;;1.07;;
14992;SDS011;7592;51.088;13.732;2023-04-03T02:37:45;3.60;;;1.10;;
14992;SDS011;7592;51.088;13.732;2023-04-03T02:42:38;6.37;;;1.50;;
14992;SDS011;7592;51.088;13.732;2023-04-03T02:47:30;3.90;;;1.37;;
14992;SDS011;7592;51.088;13.732;2023-04-03T02:52:22;3.83;;;1.40;;
14992;SDS011;7592;51.088;13.732;2023-04-03T02:57:17;4.77;;;1.87;;
14992;SDS011;7592;51.088;13.732;2023-04-03T03:02:11;5.20;;;1.50;;
14992;SDS011;7592;51.088;13.732;2023-04-03T03:07:03;3.47;;;1.30;;
14992;SDS011;7592;51.088;13.732;2023-04-03T03:11:56;2.93;;;1.13;;
14992;SDS011;7592;51.088;13.732;2023-04-03T03:16:48;2.93;;;1.47;;
14992;SDS011;7592;51.088;13.732;2023-04-03T03:21:41;5.37;;;1.30;;
14992;SDS011;7592;51.088;13.732;2023-04-03T03:26:33;3.23;;;1.20;;
14992;SDS011;7592;51.088;13.732;2023-04-03T03:31:26;3.10;;;1.10;;
14992;SDS011;7592;51.088;13.732;2023-04-03T03:36:18;1.80;;;1.10;;
14992;SDS011;7592;51.088;13.732;2023-04-03T03:41:10;3.97;;;1.50;;
14992;SDS011;7592;51.088;13.732;2023-04-03T03:46:04;4.53;;;1.63;;
14992;SDS011;7592;51.088;13.732;2023-04-03T03:50:57;5.90;;;2.50;;
14992;SDS011;7592;51.088;13.732;2023-04-03T03:55:53;3.53;;;1.73;;
14992;SDS011;7592;51.088;13.732;2023-04-03T04:00:49;4.93;;;1.27;;
14992;SDS011;7592;51.088;13.732;2023-04-03T04:05:42;5.43;;;1.50;;
14992;SDS011;7592;51.088;13.732;2023-04-03T04:10:35;6.33;;;1.60;;
14992;SDS011;7592;51.088;13.732;2023-04-03T04:15:32;4.97;;;3.00;;
14992;SDS011;7592;51.088;13.732;2023-04-03T04:20:26;5.23;;;1.80;;
14992;SDS011;7592;51.088;13.732;2023-04-03T04:25:18;5.70;;;1.87;;
14992;SDS011;7592;51.088;13.732;2023-04-03T04:30:11;4.40;;;2.60;;
14992;SDS011;7592;51.088;13.732;2023-04-03T04:35:04;9.90;;;4.13;;
14992;SDS011;7592;51.088;13.732;2023-04-03T04:39:59;8.10;;;2.13;;
14992;SDS011;7592;51.088;13.732;2023-04-03T04:44:52;9.43;;;1.93;;
14992;SDS011;7592;51.088;13.732;2023-04-03T04:49:45;5.17;;;1.70;;
14992;SDS011;7592;51.088;13.732;2023-04-03T04:54:39;5.07;;;1.50;;
14992;SDS011;7592;51.088;13.732;2023-04-03T04:59:32;6.07;;;2.43;;
14992;SDS011;7592;51.088;13.732;2023-04-03T05:04:25;9.73;;;2.50;;
14992;SDS011;7592;51.088;13.732;2023-04-03T05:09:23;8.83;;;2.13;;
14992;SDS011;7592;51.088;13.732;2023-04-03T05:14:16;9.90;;;2.60;;
14992;SDS011;7592;51.088;13.732;2023-04-03T05:19:10;7.90;;;1.97;;
14992;SDS011;7592;51.088;13.732;2023-04-03T05:24:04;11.60;;;2.67;;
14992;SDS011;7592;51.088;13.732;2023-04-03T05:28:58;3.77;;;1.80;;
14992;SDS011;7592;51.088;13.732;2023-04-03T05:33:50;3.80;;;1.50;;
14992;SDS011;7592;51.088;13.732;2023-04-03T05:38:43;11.20;;;3.83;;
14992;SDS011;7592;51.088;13.732;2023-04-03T05:43:35;9.13;;;2.10;;
14992;SDS011;7592;51.088;13.732;2023-04-03T05:48:32;5.93;;;1.60;;
14992;SDS011;7592;51.088;13.732;2023-04-03T05:53:26;4.10;;;1.40;;
14992;SDS011;7592;51.088;13.732;2023-04-03T05:58:24;6.67;;;1.70;;
14992;SDS011;7592;51.088;13.732;2023-04-03T06:03:17;9.33;;;2.43;;
14992;SDS011;7592;51.088;13.732;2023-04-03T06:08:10;6.23;;;1.70;;
14992;SDS011;7592;51.088;13.732;2023-04-03T06:13:02;4.17;;;1.87;;
14992;SDS011;7592;51.088;13.732;2023-04-03T06:17:54;3.77;;;1.53;;
14992;SDS011;7592;51.088;13.732;2023-04-03T06:22:46;7.87;;;2.03;;
14992;SDS011;7592;51.088;13.732;2023-04-03T06:27:39;5.03;;;1.97;;
14992;SDS011;7592;51.088;13.732;2023-04-03T06:32:31;6.00;;;1.97;;
14992;SDS011;7592;51.088;13.732;2023-04-03T06:37:23;7.90;;;2.13;;
14992;SDS011;7592;51.088;13.732;2023-04-03T06:42:20;4.80;;;1.50;;
14992;SDS011;7592;51.088;13.732;2023-04-03T06:47:22;4.77;;;1.57;;
14992;SDS011;7592;51.088;13.732;2023-04-03T06:52:14;5.17;;;1.80;;
14992;SDS011;7592;51.088;13.732;2023-04-03T06:57:07;5.00;;;1.83;;
14992;SDS011;7592;51.088;13.732;2023-04-03T07:01:59;6.17;;;1.83;;
14992;SDS011;7592;51.088;13.732;2023-04-03T07:06:52;7.00;;;2.30;;
14992;SDS011;7592;51.088;13.732;2023-04-03T07:11:45;5.43;;;1.67;;
14992;SDS011;7592;51.088;13.732;2023-04-03T07:16:37;3.80;;;1.80;;
14992;SDS011;7592;51.088;13.732;2023-04-03T07:21:32;2.77;;;1.20;;
14992;SDS011;7592;51.088;13.732;2023-04-03T07:26:25;2.70;;;1.67;;
14992;SDS011;7592;51.088;13.732;2023-04-03T07:31:18;13.40;;;4.33;;
14992;SDS011;7592;51.088;13.732;2023-04-03T07:36:11;4.93;;;1.47;;
14992;SDS011;7592;51.088;13.732;2023-04-03T07:41:10;5.73;;;1.53;;
14992;SDS011;7592;51.088;13.732;2023-04-03T07:46:06;2.80;;;1.40;;
14992;SDS011;7592;51.088;13.732;2023-04-03T07:50:59;7.97;;;2.23;;
14992;SDS011;7592;51.088;13.732;2023-04-03T07:55:53;3.97;;;1.27;;
14992;SDS011;7592;51.088;13.732;2023-04-03T08:00:46;4.90;;;1.27;;
14992;SDS011;7592;51.088;13.732;2023-04-03T08:05:43;4.43;;;1.40;;
14992;SDS011;7592;51.088;13.732;2023-04-03T08:10:37;2.47;;;1.50;;
14992;SDS011;7592;51.088;13.732;2023-04-03T08:15:31;4.63;;;2.47;;
14992;SDS011;7592;51.088;13.732;2023-04-03T08:20:23;2.87;;;1.30;;
14992;SDS011;7592;51.088;13.732;2023-04-03T08:25:16;7.60;;;1.73;;
14992;SDS011;7592;51.088;13.732;2023-04-03T08:30:09;2.80;;;1.63;;
14992;SDS011;7592;51.088;13.732;2023-04-03T08:35:02;6.43;;;1.60;;
14992;SDS011;7592;51.088;13.732;2023-04-03T08:39:56;10.93;;;6.40;;
14992;SDS011;7592;51.088;13.732;2023-04-03T08:50:14;3.37;;;1.43;;
14992;SDS011;7592;51.088;13.732;2023-04-03T09:10:42;2.13;;;1.50;;
14992;SDS011;7592;51.088;13.732;2023-04-03T09:15:34;3.60;;;1.30;;
14992;SDS011;7592;51.088;13.732;2023-04-03T09:25:34;2.63;;;1.10;;
14992;SDS011;7592;51.088;13.732;2023-04-03T09:30:30;2.20;;;0.83;;
14992;SDS011;7592;51.088;13.732;2023-04-03T09:35:26;6.80;;;2.47;;
14992;SDS011;7592;51.088;13.732;2023-04-03T09:40:38;6.50;;;1.17;;
14992;SDS011;7592;51.088;13.732;2023-04-03T09:45:32;1.50;;;0.80;;
14992;SDS011;7592;51.088;13.732;2023-04-03T09:50:26;3.43;;;1.00;;
14992;SDS011;7592;51.088;13.732;2023-04-03T10:00:21;8.77;;;1.33;;
14992;SDS011;7592;51.088;13.732;2023-04-03T10:10:24;2.60;;;0.90;;
14992;SDS011;7592;51.088;13.732;2023-04-03T10:15:17;2.20;;;0.80;;
14992;SDS011;7592;51.088;13.732;2023-04-03T10:20:22;1.87;;;0.90;;
14992;SDS011;7592;51.088;13.732;2023-04-03T10:25:26;2.10;;;0.80;;
14992;SDS011;7592;51.088;13.732;2023-04-03T10:35:34;2.00;;;0.90;;
14992;SDS011;7592;51.088;13.732;2023-04-03T10:40:37;1.07;;;0.70;;
14992;SDS011;7592;51.088;13.732;2023-04-03T10:45:47;2.30;;;1.13;;
14992;SDS011;7592;51.088;13.732;2023-04-03T11:01:17;1.50;;;0.80;;
14992;SDS011;7592;51.088;13.732;2023-04-03T11:06:13;1.40;;;0.97;;
14992;SDS011;7592;51.088;13.732;2023-04-03T11:11:09;11.40;;;4.27;;
14992;SDS011;7592;51.088;13.732;2023-04-03T11:16:06;2.37;;;1.20;;
14992;SDS011;7592;51.088;13.732;2023-04-03T11:21:04;1.23;;;0.57;;
14992;SDS011;7592;51.088;13.732;2023-04-03T11:26:10;3.00;;;0.90;;
14992;SDS011;7592;51.088;13.732;2023-04-03T11:31:08;2.57;;;1.00;;
14992;SDS011;7592;51.088;13.732;2023-04-03T11:36:26;2.53;;;0.97;;
14992;SDS011;7592;51.088;13.732;2023-04-03T11:41:29;3.90;;;1.20;;
14992;SDS011;7592;51.088;13.732;2023-04-03T11:46:40;4.00;;;1.70;;
14992;SDS011;7592;51.088;13.732;2023-04-03T11:51:42;3.47;;;1.63;;
14992;SDS011;7592;51.088;13.732;2023-04-03T11:56:35;4.30;;;1.40;;
14992;SDS011;7592;51.088;13.732;2023-04-03T12:11:30;3.00;;;0.80;;
14992;SDS011;7592;51.088;13.732;2023-04-03T12:26:26;4.33;;;2.00;;
14992;SDS011;7592;51.088;13.732;2023-04-03T12:31:36;3.17;;;0.80;;
14992;SDS011;7592;51.088;13.732;2023-04-03T12:36:45;2.47;;;1.00;;
14992;SDS011;7592;51.088;13.732;2023-04-03T12:41:58;1.53;;;0.87;;
14992;SDS011;7592;51.088;13.732;2023-04-03T12:47:54;2.80;;;0.80;;
14992;SDS011;7592;51.088;13.732;2023-04-03T12:57:31;3.50;;;0.87;;
14992;SDS011;7592;51.088;13.732;2023-04-03T13:02:25;2.97;;;0.80;;
14992;SDS011;7592;51.088;13.732;2023-04-03T13:07:20;1.80;;;0.70;;
14992;SDS011;7592;51.088;13.732;2023-04-03T13:12:16;1.43;;;0.83;;
14992;SDS011;7592;51.088;13.732;2023-04-03T13:17:13;2.07;;;0.80;;
14992;SDS011;7592;51.088;13.732;2023-04-03T13:27:34;1.00;;;0.80;;
14992;SDS011;7592;51.088;13.732;2023-04-03T13:32:28;1.83;;;0.80;;
14992;SDS011;7592;51.088;13.732;2023-04-03T13:37:39;2.27;;;0.70;;
14992;SDS011;7592;51.088;13.732;2023-04-03T13:42:44;1.63;;;0.73;;
14992;SDS011;7592;51.088;13.732;2023-04-03T13:47:39;2.10;;;0.90;;
14992;SDS011;7592;51.088;13.732;2023-04-03T13:52:34;4.80;;;0.70;;
14992;SDS011;7592;51.088;13.732;2023-04-03T13:57:33;3.47;;;1.03;;
14992;SDS011;7592;51.088;13.732;2023-04-03T14:02:30;4.03;;;1.10;;
14992;SDS011;7592;51.088;13.732;2023-04-03T14:07:24;1.90;;;1.63;;
14992;SDS011;7592;51.088;13.732;2023-04-03T14:12:18;2.30;;;1.43;;
14992;SDS011;7592;51.088;13.732;2023-04-03T14:17:25;33.43;;;20.73;;
14992;SDS011;7592;51.088;13.732;2023-04-03T14:22:19;18.77;;;13.97;;
14992;SDS011;7592;51.088;13.732;2023-04-03T14:27:26;17.20;;;10.97;;
14992;SDS011;7592;51.088;13.732;2023-04-03T14:32:20;5.37;;;2.90;;
14992;SDS011;7592;51.088;13.732;2023-04-03T14:37:16;9.57;;;7.77;;
14992;SDS011;7592;51.088;13.732;2023-04-03T14:42:12;3.00;;;1.20;;
14992;SDS011;7592;51.088;13.732;2023-04-03T14:47:10;3.20;;;1.30;;
14992;SDS011;7592;51.088;13.732;2023-04-03T14:52:26;10.37;;;3.30;;
14992;SDS011;7592;51.088;13.732;2023-04-03T14:57:21;2.73;;;1.27;;
14992;SDS011;7592;51.088;13.732;2023-04-03T15:07:19;7.60;;;5.67;;
14992;SDS011;7592;51.088;13.732;2023-04-03T15:12:12;5.90;;;2.80;;
14992;SDS011;7592;51.088;13.732;2023-04-03T15:17:16;7.53;;;4.00;;
14992;SDS011;7592;51.088;13.732;2023-04-03T15:22:17;3.90;;;1.70;;
14992;SDS011;7592;51.088;13.732;2023-04-03T15:27:11;1.77;;;1.07;;
14992;SDS011;7592;51.088;13.732;2023-04-03T15:32:04;6.77;;;2.40;;
14992;SDS011;7592;51.088;13.732;2023-04-03T15:36:57;3.37;;;2.97;;
14992;SDS011;7592;51.088;13.732;2023-04-03T15:41:49;5.90;;;1.60;;
14992;SDS011;7592;51.088;13.732;2023-04-03T15:46:43;5.07;;;1.00;;
14992;SDS011;7592;51.088;13.732;2023-04-03T15:51:36;2.40;;;0.93;;
14992;SDS011;7592;51.088;13.732;2023-04-03T15:56:29;1.80;;;1.30;;
14992;SDS011;7592;51.088;13.732;2023-04-03T16:01:21;2.87;;;1.30;;
14992;SDS011;7592;51.088;13.732;2023-04-03T16:06:14;3.33;;;1.70;;
14992;SDS011;7592;51.088;13.732;2023-04-03T16:11:07;6.83;;;2.67;;
14992;SDS011;7592;51.088;13.732;2023-04-03T16:16:00;1.43;;;0.83;;
14992;SDS011;7592;51.088;13.732;2023-04-03T16:20:53;3.87;;;2.70;;
14992;SDS011;7592;51.088;13.732;2023-04-03T16:25:46;6.60;;;4.40;;
14992;SDS011;7592;51.088;13.732;2023-04-03T16:30:39;10.97;;;5.77;;
14992;SDS011;7592;51.088;13.732;2023-04-03T16:35:32;3.23;;;1.93;;
14992;SDS011;7592;51.088;13.732;2023-04-03T16:40:24;2.17;;;1.20;;
14992;SDS011;7592;51.088;13.732;2023-04-03T16:45:16;7.40;;;3.13;;
14992;SDS011;7592;51.088;13.732;2023-04-03T16:50:09;6.73;;;3.97;;
14992;SDS011;7592;51.088;13.732;2023-04-03T16:55:02;3.57;;;2.23;;
14992;SDS011;7592;51.088;13.732;2023-04-03T16:59:54;5.40;;;1.77;;
14992;SDS011;7592;51.088;13.732;2023-04-03T17:04:46;1.67;;;0.60;;
14992;SDS011;7592;51.088;13.732;2023-04-03T17:09:41;7.07;;;2.90;;
14992;SDS011;7592;51.088;13.732;2023-04-03T17:14:33;9.87;;;5.17;;
14992;SDS011;7592;51.088;13.732;2023-04-03T17:19:26;5.47;;;2.03;;
14992;SDS011;7592;51.088;13.732;2023-04-03T17:24:19;4.70;;;2.07;;
14992;SDS011;7592;51.088;13.732;2023-04-03T17:29:11;5.57;;;2.80;;
14992;SDS011;7592;51.088;13.732;2023-04-03T17:34:03;4.47;;;2.10;;
14992;SDS011;7592;51.088;13.732;2023-04-03T17:38:56;2.57;;;1.20;;
14992;SDS011;7592;51.088;13.732;2023-04-03T17:43:48;3.87;;;2.10;;
14992;SDS011;7592;51.088;13.732;2023-04-03T17:48:41;5.67;;;3.20;;
14992;SDS011;7592;51.088;13.732;2023-04-03T17:53:33;6.10;;;3.53;;
14992;SDS011;7592;51.088;13.732;2023-04-03T17:58:25;4.93;;;3.20;;
14992;SDS011;7592;51.088;13.732;2023-04-03T18:03:18;4.53;;;3.00;;
14992;SDS011;7592;51.088;13.732;2023-04-03T18:08:10;6.33;;;3.63;;
14992;SDS011;7592;51.088;13.732;2023-04-03T18:13:03;30.67;;;17.27;;
14992;SDS011;7592;51.088;13.732;2023-04-03T18:17:57;84.83;;;41.23;;
14992;SDS011;7592;51.088;13.732;2023-04-03T18:22:49;83.60;;;39.87;;
14992;SDS011;7592;51.088;13.732;2023-04-03T18:27:43;32.43;;;16.70;;
14992;SDS011;7592;51.088;13.732;2023-04-03T18:32:37;19.27;;;10.20;;
14992;SDS011;7592;51.088;13.732;2023-04-03T18:37:30;12.77;;;6.93;;
14992;SDS011;7592;51.088;13.732;2023-04-03T18:42:23;9.90;;;5.43;;
14992;SDS011;7592;51.088;13.732;2023-04-03T18:47:16;10.37;;;7.57;;
14992;SDS011;7592;51.088;13.732;2023-04-03T18:52:09;5.90;;;3.70;;
14992;SDS011;7592;51.088;13.732;2023-04-03T18:57:02;6.40;;;4.90;;
14992;SDS011;7592;51.088;13.732;2023-04-03T19:01:55;6.53;;;4.70;;
14992;SDS011;7592;51.088;13.732;2023-04-03T19:06:47;4.07;;;3.63;;
14992;SDS011;7592;51.088;13.732;2023-04-03T19:11:39;5.83;;;3.23;;
14992;SDS011;7592;51.088;13.732;2023-04-03T19:16:32;5.43;;;3.50;;
14992;SDS011;7592;51.088;13.732;2023-04-03T19:21:24;7.53;;;4.30;;
14992;SDS011;7592;51.088;13.732;2023-04-03T19:26:16;6.23;;;3.70;;
14992;SDS011;7592;51.088;13.732;2023-04-03T19:31:12;5.93;;;3.43;;
14992;SDS011;7592;51.088;13.732;2023-04-03T19:36:07;2.77;;;2.47;;
14992;SDS011;7592;51.088;13.732;2023-04-03T19:41:02;5.83;;;2.90;;
14992;SDS011;7592;51.088;13.732;2023-04-03T19:45:59;4.83;;;3.23;;
14992;SDS011;7592;51.088;13.732;2023-04-03T19:50:51;5.07;;;2.97;;
14992;SDS011;7592;51.088;13.732;2023-04-03T19:55:47;5.23;;;2.27;;
14992;SDS011;7592;51.088;13.732;2023-04-03T20:00:39;4.30;;;2.30;;
14992;SDS011;7592;51.088;13.732;2023-04-03T20:05:32;3.40;;;2.13;;
14992;SDS011;7592;51.088;13.732;2023-04-03T20:10:24;3.77;;;2.37;;
14992;SDS011;7592;51.088;13.732;2023-04-03T20:15:16;3.60;;;1.80;;
14992;SDS011;7592;51.088;13.732;2023-04-03T20:20:09;6.23;;;1.97;;
14992;SDS011;7592;51.088;13.732;2023-04-03T20:25:03;3.50;;;1.73;;
14992;SDS011;7592;51.088;13.732;2023-04-03T20:30:03;2.20;;;1.37;;
14992;SDS011;7592;51.088;13.732;2023-04-03T20:34:59;3.27;;;1.73;;
14992;SDS011;7592;51.088;13.732;2023-04-03T20:39:56;2.73;;;2.13;;
14992;SDS011;7592;51.088;13.732;2023-04-03T20:44:48;2.80;;;1.60;;
14992;SDS011;7592;51.088;13.732;2023-04-03T20:49:40;1.63;;;1.47;;
14992;SDS011;7592;51.088;13.732;2023-04-03T20:54:35;5.10;;;1.83;;
14992;SDS011;7592;51.088;13.732;2023-04-03T20:59:28;2.80;;;1.60;;
14992;SDS011;7592;51.088;13.732;2023-04-03T21:04:36;2.70;;;2.10;;
14992;SDS011;7592;51.088;13.732;2023-04-03T21:20:35;4.30;;;2.00;;
14992;SDS011;7592;51.088;13.732;2023-04-03T21:25:28;3.23;;;2.13;;
14992;SDS011;7592;51.088;13.732;2023-04-03T21:30:20;3.47;;;1.63;;
14992;SDS011;7592;51.088;13.732;2023-04-03T21:35:13;3.80;;;1.70;;
14992;SDS011;7592;51.088;13.732;2023-04-03T21:40:06;2.27;;;1.63;;
14992;SDS011;7592;51.088;13.732;2023-04-03T21:44:58;4.57;;;2.20;;
14992;SDS011;7592;51.088;13.732;2023-04-03T21:49:51;5.23;;;2.17;;
14992;SDS011;7592;51.088;13.732;2023-04-03T21:54:43;2.97;;;1.80;;
14992;SDS011;7592;51.088;13.732;2023-04-03T21:59:35;4.90;;;2.10;;
14992;SDS011;7592;51.088;13.732;2023-04-03T22:04:28;5.33;;;1.67;;
14992;SDS011;7592;51.088;13.732;2023-04-03T22:09:20;4.03;;;2.20;;
14992;SDS011;7592;51.088;13.732;2023-04-03T22:14:13;3.73;;;1.80;;
14992;SDS011;7592;51.088;13.732;2023-04-03T22:19:05;4.00;;;2.30;;
14992;SDS011;7592;51.088;13.732;2023-04-03T22:23:57;3.37;;;2.17;;
14992;SDS011;7592;51.088;13.732;2023-04-03T22:28:49;3.33;;;2.30;;
14992;SDS011;7592;51.088;13.732;2023-04-03T22:33:42;3.27;;;2.23;;
14992;SDS011;7592;51.088;13.732;2023-04-03T22:38:36;3.53;;;2.10;;
14992;SDS011;7592;51.088;13.732;2023-04-03T22:43:30;5.23;;;2.00;;
14992;SDS011;7592;51.088;13.732;2023-04-03T22:48:23;5.03;;;2.07;;
14992;SDS011;7592;51.088;13.732;2023-04-03T22:53:15;2.70;;;1.50;;
14992;SDS011;7592;51.088;13.732;2023-04-03T22:58:08;3.37;;;2.30;;
14992;SDS011;7592;51.088;13.732;2023-04-03T23:03:00;6.77;;;2.37;;
14992;SDS011;7592;51.088;13.732;2023-04-03T23:07:53;3.10;;;2.30;;
14992;SDS011;7592;51.088;13.732;2023-04-03T23:12:45;4.83;;;2.00;;
14992;SDS011;7592;51.088;13.732;2023-04-03T23:17:37;3.73;;;1.70;;
14992;SDS011;7592;51.088;13.732;2023-04-03T23:22:29;2.00;;;1.40;;
14992;SDS011;7592;51.088;13.732;2023-04-03T23:27:22;2.73;;;1.57;;
14992;SDS011;7592;51.088;13.732;2023-04-03T23:32:14;3.73;;;1.57;;
14992;SDS011;7592;51.088;13.732;2023-04-03T23:37:10;4.03;;;1.67;;
14992;SDS011;7592;51.088;13.732;2023-04-03T23:42:03;2.47;;;1.70;;
14992;SDS011;7592;51.088;13.732;2023-04-03T23:46:59;2.33;;;1.60;;
14992;SDS011;7592;51.088;13.732;2023-04-03T23:51:51;4.00;;;1.80;;
14992;SDS011;7592;51.088;13.732;2023-04-03T23:56:44;4.73;;;1.80;;
